createdAt,value
2018-07-31T00:00:56.956Z,231.55
2018-07-31T00:03:28.123Z,217.60
2018-07-31T00:05:59.350Z,234.30
2018-07-31T00:08:30.592Z,225.68
2018-07-31T00:11:01.795Z,238.55
2018-07-31T00:13:32.770Z,237.53
2018-07-31T00:16:03.963Z,230.05
2018-07-31T00:18:35.215Z,223.72
2018-07-31T00:21:06.536Z,231.63
2018-07-31T00:23:38.720Z,220.33
2018-07-31T00:26:09.731Z,233.07
2018-07-31T00:28:41.089Z,232.45
2018-07-31T00:31:12.539Z,229.18
2018-07-31T00:33:43.668Z,232.85
2018-07-31T00:36:14.946Z,240.20
2018-07-31T00:38:45.969Z,245.67
2018-07-31T00:41:16.956Z,245.85
2018-07-31T00:43:48.391Z,252.43
2018-07-31T00:46:19.604Z,246.25
2018-07-31T00:48:50.725Z,254.70
2018-07-31T00:51:21.847Z,248.35
2018-07-31T00:53:52.999Z,240.15
2018-07-31T00:56:24.021Z,240.55
2018-07-31T00:58:55.000Z,243.93
2018-07-31T01:01:26.149Z,240.07
2018-07-31T01:03:57.229Z,251.95
2018-07-31T01:06:33.404Z,237.75
2018-07-31T01:09:04.701Z,238.82
2018-07-31T01:11:35.731Z,239.90
2018-07-31T01:14:07.789Z,239.97
2018-07-31T01:16:40.646Z,233.95
2018-07-31T01:19:12.342Z,232.43
2018-07-31T01:21:43.535Z,238.47
2018-07-31T01:24:14.833Z,221.82
2018-07-31T01:26:46.115Z,223.05
2018-07-31T01:29:17.224Z,229.93
2018-07-31T01:31:48.244Z,238.52
2018-07-31T01:34:19.771Z,238.30
2018-07-31T01:36:50.853Z,241.40
2018-07-31T01:39:24.539Z,228.45
2018-07-31T01:41:55.646Z,241.68
2018-07-31T01:44:26.707Z,237.60
2018-07-31T01:46:58.005Z,240.22
2018-07-31T01:49:29.119Z,227.53
2018-07-31T01:52:00.280Z,250.80
2018-07-31T01:54:31.878Z,249.05
2018-07-31T01:57:03.124Z,241.42
2018-07-31T01:59:34.289Z,252.38
2018-07-31T02:02:05.997Z,240.55
2018-07-31T02:04:37.218Z,221.07
2018-07-31T02:07:08.465Z,228.75
2018-07-31T02:09:39.821Z,222.55
2018-07-31T02:12:11.204Z,231.23
2018-07-31T02:14:42.082Z,232.55
2018-07-31T02:17:13.254Z,235.63
2018-07-31T02:19:44.498Z,230.60
2018-07-31T02:22:15.722Z,235.35
2018-07-31T02:24:46.643Z,235.90
2018-07-31T02:27:17.717Z,224.77
2018-07-31T02:29:54.131Z,231.53
2018-07-31T02:32:25.396Z,222.10
2018-07-31T02:34:56.721Z,227.15
2018-07-31T02:37:28.075Z,234.25
2018-07-31T02:39:59.271Z,221.93
2018-07-31T02:42:30.650Z,216.90
2018-07-31T02:45:02.976Z,229.93
2018-07-31T02:47:33.838Z,231.57
2018-07-31T02:50:04.927Z,234.00
2018-07-31T02:52:35.997Z,226.80
2018-07-31T02:55:07.863Z,234.25
2018-07-31T02:57:40.239Z,224.55
2018-07-31T03:00:12.211Z,228.60
2018-07-31T03:02:43.856Z,228.45
2018-07-31T03:05:14.953Z,229.63
2018-07-31T03:07:46.104Z,222.70
2018-07-31T03:10:17.197Z,233.82
2018-07-31T03:12:48.475Z,233.95
2018-07-31T03:15:19.881Z,233.63
2018-07-31T03:17:51.015Z,233.78
2018-07-31T03:20:22.079Z,226.77
2018-07-31T03:22:53.396Z,227.07
2018-07-31T03:25:24.554Z,221.97
2018-07-31T03:27:55.829Z,236.52
2018-07-31T03:30:28.007Z,223.40
2018-07-31T03:32:59.179Z,235.15
2018-07-31T03:35:30.959Z,235.55
2018-07-31T03:38:02.684Z,223.35
2018-07-31T03:40:34.060Z,239.17
2018-07-31T03:43:06.045Z,223.13
2018-07-31T03:45:37.416Z,223.87
2018-07-31T03:48:09.586Z,222.63
2018-07-31T03:50:40.758Z,217.77
2018-07-31T03:53:12.991Z,223.57
2018-07-31T03:55:44.171Z,217.50
2018-07-31T03:58:15.514Z,224.00
2018-07-31T04:00:46.778Z,223.22
2018-07-31T04:03:17.873Z,225.85
2018-07-31T04:05:49.261Z,226.35
2018-07-31T04:08:20.358Z,232.20
2018-07-31T04:10:51.812Z,221.10
2018-07-31T04:13:22.955Z,220.67
2018-07-31T04:15:54.688Z,217.13
2018-07-31T04:18:25.815Z,217.00
2018-07-31T04:20:57.350Z,216.33
2018-07-31T04:23:28.541Z,212.95
2018-07-31T04:26:00.099Z,229.05
2018-07-31T04:28:31.507Z,228.85
2018-07-31T04:31:02.800Z,220.73
2018-07-31T04:33:34.024Z,233.40
2018-07-31T04:36:05.307Z,223.62
2018-07-31T04:38:36.356Z,232.90
2018-07-31T04:41:07.482Z,216.80
2018-07-31T04:43:38.536Z,222.52
2018-07-31T04:46:09.996Z,223.45
2018-07-31T04:48:41.145Z,219.93
2018-07-31T04:51:12.282Z,226.47
2018-07-31T04:53:43.460Z,235.17
2018-07-31T04:56:15.448Z,224.30
2018-07-31T04:58:47.722Z,224.15
2018-07-31T05:01:18.831Z,221.60
2018-07-31T05:03:49.844Z,232.83
2018-07-31T05:06:20.938Z,236.72
2018-07-31T05:08:52.111Z,232.30
2018-07-31T05:11:23.364Z,225.07
2018-07-31T05:13:54.513Z,223.97
2018-07-31T05:16:25.849Z,247.17
2018-07-31T05:18:57.399Z,241.50
2018-07-31T05:21:28.735Z,240.90
2018-07-31T05:24:00.028Z,249.32
2018-07-31T05:26:31.306Z,229.87
2018-07-31T05:29:02.524Z,226.90
2018-07-31T05:31:33.569Z,227.30
2018-07-31T05:34:05.629Z,240.87
2018-07-31T05:36:36.886Z,245.57
2018-07-31T05:39:10.640Z,245.25
2018-07-31T05:41:43.784Z,233.07
2018-07-31T05:44:14.877Z,237.32
2018-07-31T05:46:48.665Z,231.00
2018-07-31T05:49:20.761Z,242.82
2018-07-31T05:51:51.933Z,248.65
2018-07-31T05:54:23.195Z,252.13
2018-07-31T05:56:54.267Z,245.12
2018-07-31T05:59:25.544Z,256.02
2018-07-31T06:01:56.916Z,276.15
2018-07-31T06:04:29.489Z,254.72
2018-07-31T06:07:00.936Z,259.98
2018-07-31T06:09:32.191Z,241.95
2018-07-31T06:12:04.470Z,247.05
2018-07-31T06:14:35.697Z,243.35
2018-07-31T06:17:06.651Z,242.10
2018-07-31T06:19:37.764Z,251.18
2018-07-31T06:22:08.996Z,251.47
2018-07-31T06:24:40.253Z,259.60
2018-07-31T06:27:11.499Z,255.62
2018-07-31T06:29:42.620Z,268.20
2018-07-31T06:32:13.787Z,290.68
2018-07-31T06:34:44.972Z,281.82
2018-07-31T06:37:16.242Z,264.65
2018-07-31T06:39:47.230Z,265.90
2018-07-31T06:42:18.697Z,285.27
2018-07-31T06:44:49.713Z,271.90
2018-07-31T06:47:20.703Z,276.90
2018-07-31T06:49:51.717Z,287.10
2018-07-31T06:52:28.877Z,290.45
2018-07-31T06:55:02.616Z,274.85
2018-07-31T06:57:36.787Z,262.12
2018-07-31T07:00:08.036Z,264.08
2018-07-31T07:02:39.248Z,255.70
2018-07-31T07:05:10.286Z,264.68
2018-07-31T07:07:41.223Z,269.02
2018-07-31T07:10:14.031Z,282.15
2018-07-31T07:12:46.034Z,275.75
2018-07-31T07:15:17.434Z,265.98
2018-07-31T07:17:48.497Z,285.38
2018-07-31T07:20:19.535Z,258.20
2018-07-31T07:22:50.742Z,285.43
2018-07-31T07:25:23.851Z,277.48
2018-07-31T07:27:54.883Z,261.18
2018-07-31T07:30:30.774Z,301.92
2018-07-31T07:33:03.711Z,282.02
2018-07-31T07:35:35.265Z,282.32
2018-07-31T07:38:07.074Z,291.23
2018-07-31T07:40:38.603Z,301.88
2018-07-31T07:43:14.559Z,294.65
2018-07-31T07:45:45.736Z,299.50
2018-07-31T07:48:16.840Z,282.55
2018-07-31T07:50:48.335Z,286.82
2018-07-31T07:53:19.540Z,303.60
2018-07-31T07:55:50.799Z,273.02
2018-07-31T07:58:22.042Z,285.80
2018-07-31T08:00:58.254Z,300.57
2018-07-31T08:03:29.313Z,297.55
2018-07-31T08:06:00.519Z,302.82
2018-07-31T08:08:32.432Z,288.95
2018-07-31T08:11:03.402Z,296.43
2018-07-31T08:13:34.501Z,304.98
2018-07-31T08:16:05.491Z,296.85
2018-07-31T08:18:36.611Z,319.27
2018-07-31T08:21:08.651Z,315.92
2018-07-31T08:23:39.857Z,291.63
2018-07-31T08:26:10.978Z,335.10
2018-07-31T08:28:42.090Z,322.63
2018-07-31T08:31:13.384Z,298.68
2018-07-31T08:33:44.496Z,300.62
2018-07-31T08:36:15.724Z,329.87
2018-07-31T08:38:46.782Z,337.95
2018-07-31T08:41:18.604Z,334.90
2018-07-31T08:43:49.691Z,331.00
2018-07-31T08:46:21.983Z,334.45
2018-07-31T08:48:54.224Z,314.27
2018-07-31T08:51:25.520Z,345.40
2018-07-31T08:53:56.664Z,321.32
2018-07-31T08:56:27.851Z,321.60
2018-07-31T08:58:59.060Z,361.37
2018-07-31T09:01:30.130Z,353.98
2018-07-31T09:04:01.317Z,340.10
2018-07-31T09:06:32.367Z,353.18
2018-07-31T09:09:03.595Z,338.65
2018-07-31T09:11:34.742Z,327.18
2018-07-31T09:14:07.074Z,315.92
2018-07-31T09:16:38.876Z,317.00
2018-07-31T09:19:09.931Z,328.10
2018-07-31T09:21:41.320Z,319.27
2018-07-31T09:24:12.361Z,332.80
2018-07-31T09:26:43.476Z,328.65
2018-07-31T09:29:14.509Z,318.90
2018-07-31T09:31:45.707Z,322.93
2018-07-31T09:34:18.332Z,341.35
2018-07-31T09:36:49.850Z,363.85
2018-07-31T09:39:21.375Z,346.02
2018-07-31T09:41:52.482Z,352.65
2018-07-31T09:44:23.587Z,356.07
2018-07-31T09:46:54.744Z,365.77
2018-07-31T09:49:25.870Z,352.45
2018-07-31T09:51:57.084Z,351.92
2018-07-31T09:54:28.432Z,401.45
2018-07-31T09:56:59.450Z,363.05
2018-07-31T09:59:30.753Z,382.17
2018-07-31T10:02:01.969Z,376.70
2018-07-31T10:04:33.146Z,338.25
2018-07-31T10:07:04.162Z,352.82
2018-07-31T10:09:35.464Z,343.05
2018-07-31T10:12:06.566Z,297.65
2018-07-31T10:14:37.526Z,301.73
2018-07-31T10:17:08.597Z,311.98
2018-07-31T10:19:39.703Z,338.35
2018-07-31T10:22:10.811Z,337.85
2018-07-31T10:24:42.190Z,334.85
2018-07-31T10:27:13.302Z,334.30
2018-07-31T10:29:44.392Z,330.07
2018-07-31T10:32:15.599Z,320.50
2018-07-31T10:34:46.536Z,359.67
2018-07-31T10:37:17.755Z,372.90
2018-07-31T10:39:48.859Z,383.98
2018-07-31T10:42:20.144Z,369.02
2018-07-31T10:44:51.307Z,358.05
2018-07-31T10:47:22.476Z,314.98
2018-07-31T10:49:53.708Z,381.25
2018-07-31T10:52:28.305Z,377.82
2018-07-31T10:54:59.797Z,389.30
2018-07-31T10:57:31.134Z,371.27
2018-07-31T11:00:06.776Z,355.70
2018-07-31T11:14:42.756Z,408.27
2018-07-31T11:17:14.331Z,374.35
2018-07-31T11:19:50.544Z,372.30
2018-07-31T11:22:21.537Z,364.50
2018-07-31T11:24:53.091Z,404.32
2018-07-31T11:27:24.080Z,427.62
2018-07-31T11:29:55.040Z,396.95
2018-07-31T11:32:28.783Z,381.70
2018-07-31T11:35:04.589Z,405.25
2018-07-31T11:37:47.189Z,392.48
2018-07-31T11:40:20.459Z,381.15
2018-07-31T11:42:51.776Z,411.98
2018-07-31T11:45:22.870Z,374.40
2018-07-31T11:47:54.312Z,341.77
2018-07-31T11:50:25.604Z,387.48
2018-07-31T11:52:57.491Z,352.07
2018-07-31T11:55:28.625Z,329.85
2018-07-31T11:57:59.726Z,362.65
2018-07-31T12:00:30.955Z,378.62
2018-07-31T12:03:03.139Z,372.77
2018-07-31T12:05:34.689Z,374.40
2018-07-31T12:08:06.886Z,395.35
2018-07-31T12:10:39.340Z,418.48
2018-07-31T12:13:11.473Z,408.75
2018-07-31T12:15:42.537Z,400.00
2018-07-31T12:18:13.619Z,392.48
2018-07-31T12:20:44.723Z,400.75
2018-07-31T12:23:16.281Z,367.60
2018-07-31T12:25:47.366Z,384.67
2018-07-31T12:28:18.952Z,371.55
2018-07-31T12:30:49.881Z,382.98
2018-07-31T12:33:21.718Z,379.82
2018-07-31T12:35:53.110Z,424.00
2018-07-31T12:38:25.264Z,432.27
2018-07-31T12:40:56.272Z,421.40
2018-07-31T12:43:27.349Z,414.00
2018-07-31T12:45:59.933Z,425.62
2018-07-31T12:48:31.401Z,420.62
2018-07-31T12:51:02.389Z,450.92
2018-07-31T12:53:33.491Z,392.68
2018-07-31T12:56:05.160Z,439.05
2018-07-31T12:58:36.230Z,440.55
2018-07-31T13:01:07.277Z,422.23
2018-07-31T13:03:38.369Z,452.10
2018-07-31T13:06:09.310Z,433.27
2018-07-31T13:08:43.647Z,474.02
2018-07-31T13:11:15.635Z,462.12
2018-07-31T13:13:47.329Z,428.62
2018-07-31T13:16:18.332Z,411.02
2018-07-31T13:18:49.536Z,414.45
2018-07-31T13:21:20.652Z,411.10
2018-07-31T13:23:52.138Z,408.27
2018-07-31T13:26:23.134Z,401.93
2018-07-31T13:28:54.348Z,419.20
2018-07-31T13:31:25.465Z,423.13
2018-07-31T13:33:56.945Z,418.23
2018-07-31T13:36:28.152Z,403.58
2018-07-31T13:38:59.395Z,396.23
2018-07-31T13:41:30.381Z,432.80
2018-07-31T13:44:01.576Z,429.92
2018-07-31T13:46:32.867Z,433.83
2018-07-31T13:49:04.043Z,444.32
2018-07-31T13:51:35.240Z,431.37
2018-07-31T13:54:06.362Z,428.45
2018-07-31T13:56:37.325Z,442.35
2018-07-31T13:59:08.888Z,429.25
2018-07-31T14:01:40.827Z,454.65
2018-07-31T14:04:13.166Z,435.52
2018-07-31T14:06:44.603Z,405.22
2018-07-31T14:09:17.499Z,415.80
2018-07-31T14:11:48.916Z,459.52
2018-07-31T14:14:20.474Z,435.78
2018-07-31T14:16:52.088Z,432.52
2018-07-31T14:19:23.271Z,449.75
2018-07-31T14:21:54.357Z,499.52
2018-07-31T14:24:25.565Z,444.25
2018-07-31T14:26:56.864Z,428.30
2018-07-31T14:29:28.165Z,455.67
2018-07-31T14:31:59.169Z,422.40
2018-07-31T14:34:30.875Z,432.70
2018-07-31T14:37:02.708Z,423.52
2018-07-31T14:39:33.864Z,422.17
2018-07-31T14:42:06.431Z,450.55
2018-07-31T14:44:37.612Z,435.82
2018-07-31T14:47:08.932Z,426.90
2018-07-31T14:49:40.055Z,457.75
2018-07-31T14:52:11.305Z,473.28
2018-07-31T14:54:42.745Z,470.08
2018-07-31T14:57:14.106Z,461.12
2018-07-31T14:59:45.532Z,500.10
2018-07-31T15:02:16.591Z,439.23
2018-07-31T15:04:47.855Z,475.45
2018-07-31T15:07:19.204Z,466.00
2018-07-31T15:09:50.673Z,439.82
2018-07-31T15:12:22.161Z,431.20
2018-07-31T15:14:53.800Z,462.88
2018-07-31T15:17:24.955Z,464.07
2018-07-31T15:19:56.331Z,473.73
2018-07-31T15:22:27.534Z,408.48
2018-07-31T15:24:58.931Z,408.42
2018-07-31T15:27:30.510Z,428.50
2018-07-31T15:30:01.833Z,419.47
2018-07-31T15:32:32.843Z,445.38
2018-07-31T15:35:04.416Z,464.48
2018-07-31T15:37:35.447Z,427.47
2018-07-31T15:40:07.167Z,483.05
2018-07-31T15:42:38.788Z,467.87
2018-07-31T15:45:11.823Z,454.10
2018-07-31T15:47:43.608Z,439.95
2018-07-31T15:50:15.405Z,485.75
2018-07-31T15:52:46.613Z,448.97
2018-07-31T15:55:20.066Z,491.42
2018-07-31T15:57:51.312Z,485.65
2018-07-31T16:00:25.345Z,441.05
2018-07-31T16:02:56.696Z,444.17
2018-07-31T16:05:29.693Z,424.20
2018-07-31T16:08:02.969Z,457.60
2018-07-31T16:10:34.529Z,435.10
2018-07-31T16:13:05.874Z,461.62
2018-07-31T16:15:38.310Z,461.43
2018-07-31T16:18:11.022Z,421.85
2018-07-31T16:20:42.388Z,432.17
2018-07-31T16:23:13.359Z,426.60
2018-07-31T16:25:44.729Z,426.27
2018-07-31T16:28:16.036Z,427.05
2018-07-31T16:30:47.411Z,427.43
2018-07-31T16:33:18.601Z,404.42
2018-07-31T16:35:50.342Z,433.10
2018-07-31T16:38:21.631Z,439.32
2018-07-31T16:40:52.915Z,440.38
2018-07-31T16:43:23.898Z,404.00
2018-07-31T16:45:55.020Z,399.48
2018-07-31T16:48:26.583Z,436.35
2018-07-31T16:50:58.492Z,405.93
2018-07-31T16:53:29.644Z,413.40
2018-07-31T16:56:01.608Z,417.42
2018-07-31T16:58:36.796Z,443.63
2018-07-31T17:01:08.136Z,389.40
2018-07-31T17:03:39.308Z,438.15
2018-07-31T17:06:11.708Z,416.20
2018-07-31T17:08:43.000Z,395.37
2018-07-31T17:11:14.645Z,412.80
2018-07-31T17:13:45.715Z,405.27
2018-07-31T17:16:19.291Z,399.62
2018-07-31T17:18:50.451Z,394.13
2018-07-31T17:21:21.963Z,406.30
2018-07-31T17:23:53.029Z,372.70
2018-07-31T17:26:24.197Z,395.95
2018-07-31T17:28:55.448Z,418.07
2018-07-31T17:31:26.597Z,380.00
2018-07-31T17:33:57.947Z,417.50
2018-07-31T17:36:29.573Z,408.23
2018-07-31T17:39:00.679Z,425.32
2018-07-31T17:41:31.884Z,424.70
2018-07-31T17:44:03.045Z,412.10
2018-07-31T17:46:34.356Z,406.95
2018-07-31T17:49:06.444Z,422.93
2018-07-31T17:51:37.730Z,446.18
2018-07-31T17:54:09.081Z,455.83
2018-07-31T17:56:40.227Z,456.57
2018-07-31T17:59:11.504Z,421.37
2018-07-31T18:01:42.909Z,394.27
2018-07-31T18:04:14.014Z,389.75
2018-07-31T18:06:45.293Z,398.40
2018-07-31T18:09:16.387Z,402.88
2018-07-31T18:11:47.632Z,377.18
2018-07-31T18:14:19.197Z,421.05
2018-07-31T18:16:50.344Z,437.42
2018-07-31T18:19:21.361Z,389.80
2018-07-31T18:21:53.295Z,400.77
2018-07-31T18:24:26.748Z,435.73
2018-07-31T18:27:02.083Z,392.43
2018-07-31T18:29:34.673Z,380.73
2018-07-31T18:32:06.876Z,380.00
2018-07-31T18:34:37.882Z,409.83
2018-07-31T18:37:09.198Z,373.77
2018-07-31T18:39:40.170Z,401.05
2018-07-31T18:42:11.475Z,397.95
2018-07-31T18:44:42.478Z,394.70
2018-07-31T18:47:13.481Z,408.48
2018-07-31T18:49:44.445Z,389.25
2018-07-31T18:52:15.607Z,406.07
2018-07-31T18:54:46.735Z,403.18
2018-07-31T18:57:17.769Z,375.52
2018-07-31T18:59:49.189Z,384.37
2018-07-31T19:02:20.336Z,446.35
2018-07-31T19:04:51.393Z,388.65
2018-07-31T19:07:22.439Z,419.88
2018-07-31T19:09:53.744Z,396.77
2018-07-31T19:12:25.177Z,379.45
2018-07-31T19:14:56.403Z,383.85
2018-07-31T19:17:27.578Z,358.68
2018-07-31T19:19:58.624Z,363.52
2018-07-31T19:22:29.734Z,366.27
2018-07-31T19:25:01.174Z,396.65
2018-07-31T19:27:32.278Z,367.45
2018-07-31T19:30:03.613Z,386.25
2018-07-31T19:32:35.138Z,399.42
2018-07-31T19:35:06.136Z,382.35
2018-07-31T19:37:37.516Z,348.60
2018-07-31T19:40:08.596Z,337.75
2018-07-31T19:42:39.695Z,347.35
2018-07-31T19:45:10.775Z,389.72
2018-07-31T19:47:42.361Z,383.62
2018-07-31T19:50:16.494Z,359.90
2018-07-31T19:52:47.720Z,385.80
2018-07-31T19:55:20.947Z,400.10
2018-07-31T19:57:52.357Z,407.47
2018-07-31T20:00:25.926Z,335.32
2018-07-31T20:02:57.203Z,367.68
2018-07-31T20:05:28.219Z,377.20
2018-07-31T20:07:59.354Z,348.70
2018-07-31T20:10:35.184Z,339.55
2018-07-31T20:13:06.904Z,368.88
2018-07-31T20:15:39.249Z,360.90
2018-07-31T20:18:11.441Z,336.25
2018-07-31T20:20:42.320Z,387.75
2018-07-31T20:23:13.768Z,363.30
2018-07-31T20:25:44.908Z,326.85
2018-07-31T20:28:16.539Z,369.62
2018-07-31T20:30:48.091Z,379.95
2018-07-31T20:33:19.112Z,369.87
2018-07-31T20:35:50.328Z,346.98
2018-07-31T20:38:21.346Z,350.75
2018-07-31T20:40:52.613Z,305.55
2018-07-31T20:43:23.894Z,334.45
2018-07-31T20:45:55.029Z,341.77
2018-07-31T20:48:26.154Z,322.63
2018-07-31T20:50:57.273Z,340.85
2018-07-31T20:53:28.358Z,321.57
2018-07-31T20:55:59.676Z,373.23
2018-07-31T20:58:31.751Z,374.02
2018-07-31T21:01:02.853Z,386.87
2018-07-31T21:03:34.068Z,355.70
2018-07-31T21:06:05.508Z,369.18
2018-07-31T21:08:36.668Z,357.75
2018-07-31T21:11:08.294Z,333.87
2018-07-31T21:13:40.511Z,310.25
2018-07-31T21:16:11.859Z,315.05
2018-07-31T21:18:43.131Z,322.27
2018-07-31T21:21:14.085Z,300.90
2018-07-31T21:23:45.144Z,307.57
2018-07-31T21:26:16.261Z,330.23
2018-07-31T21:28:47.334Z,329.02
2018-07-31T21:31:18.322Z,359.27
2018-07-31T21:33:49.396Z,314.20
2018-07-31T21:36:20.496Z,309.55
2018-07-31T21:38:51.516Z,323.40
2018-07-31T21:41:22.564Z,351.45
2018-07-31T21:43:53.669Z,340.32
2018-07-31T21:46:24.864Z,346.55
2018-07-31T21:48:56.016Z,345.45
2018-07-31T21:51:27.220Z,345.05
2018-07-31T21:53:58.385Z,321.73
2018-07-31T21:56:38.910Z,316.50
2018-07-31T21:59:25.625Z,290.30
2018-07-31T22:01:57.167Z,277.65
2018-07-31T22:04:28.220Z,304.07
2018-07-31T22:06:59.294Z,305.98
2018-07-31T22:09:31.973Z,301.73
2018-07-31T22:12:04.938Z,292.07
2018-07-31T22:14:36.820Z,324.15
2018-07-31T22:17:08.200Z,312.65
2018-07-31T22:19:39.768Z,309.50
2018-07-31T22:22:10.847Z,276.25
2018-07-31T22:24:41.975Z,272.77
2018-07-31T22:27:13.735Z,311.45
2018-07-31T22:29:45.232Z,313.25
2018-07-31T22:32:17.519Z,297.60
2018-07-31T22:34:48.833Z,310.65
2018-07-31T22:37:19.989Z,312.82
2018-07-31T22:39:51.424Z,325.60
2018-07-31T22:42:23.661Z,277.50
2018-07-31T22:44:56.109Z,333.40
2018-07-31T22:47:27.397Z,303.65
2018-07-31T22:49:59.597Z,318.85
2018-07-31T22:52:31.247Z,299.42
2018-07-31T22:55:02.285Z,316.20
2018-07-31T22:57:33.410Z,317.90
2018-07-31T23:00:08.889Z,303.65
2018-07-31T23:02:41.561Z,289.30
2018-07-31T23:05:13.581Z,299.23
2018-07-31T23:07:44.716Z,301.92
2018-07-31T23:10:17.713Z,322.10
2018-07-31T23:12:49.967Z,302.75
2018-07-31T23:15:26.140Z,320.10
2018-07-31T23:17:57.281Z,305.83
2018-07-31T23:20:28.566Z,288.30
2018-07-31T23:22:59.598Z,305.77
2018-07-31T23:25:34.183Z,312.48
2018-07-31T23:28:06.554Z,314.17
2018-07-31T23:30:38.807Z,326.12
2018-07-31T23:33:11.626Z,292.85
2018-07-31T23:35:43.466Z,290.10
2018-07-31T23:38:14.543Z,269.85
2018-07-31T23:40:48.106Z,284.48
2018-07-31T23:43:19.604Z,282.32
2018-07-31T23:45:50.612Z,298.70
2018-07-31T23:48:21.718Z,301.02
2018-07-31T23:50:53.100Z,281.77
2018-07-31T23:53:24.114Z,272.90
2018-07-31T23:55:55.495Z,286.48
2018-07-31T23:58:26.525Z,272.23
